WetterOnline ( https://www.wetteronline.de )

Wetter aktuell Bischbrunn

Aktuelles Wetter: Neuhütten/Spessart (340m)

6-stündlich | Neueste Meldungen
Ortszeit Temperatur Wetter
Mi, 17.07. 14:00 22.3° C wolkig
Mi, 17.07. 8:00 12.5° C wolkig
Mi, 17.07. 2:00 11.6° C wolkig
Di, 16.07. 20:00 20.8° C leicht bewölkt
Di, 16.07. 14:00 20.3° C wolkenlos
Di, 16.07. 8:00 9.8° C wolkenlos
Di, 16.07. 2:00 10.2° C leicht bewölkt
Mo, 15.07. 20:00 18.3° C wolkig
Ortszeit Temperatur Wetter
Mi, 17.07. 16:00 23.5° C wolkenlos
Mi, 17.07. 15:50 23.5° C wolkenlos
Mi, 17.07. 15:40 22.6° C fast wolkenlos
Mi, 17.07. 15:30 23.1° C leicht bewölkt
Mi, 17.07. 15:20 23.1° C leicht bewölkt
Mi, 17.07. 15:10 23.8° C leicht bewölkt
Mi, 17.07. 15:00 23.7° C wolkig
Mi, 17.07. 14:30 22.3° C leicht bewölkt
Mi, 17.07. 14:00 22.3° C wolkig
Mi, 17.07. 13:30 22.2° C fast wolkenlos
Mi, 17.07. 13:00 21.3° C fast wolkenlos
Ortszeit Relative Feuchte Sichtweite
Mi, 17.07. 14:00 49% 40 km
Mi, 17.07. 8:00 89% 19 km
Mi, 17.07. 2:00 92% 20 km
Di, 16.07. 20:00 51% 40 km
Di, 16.07. 14:00 52% 40 km
Di, 16.07. 8:00 89% 18 km
Di, 16.07. 2:00 94% 24 km
Mo, 15.07. 20:00 61% 65 km
Ortszeit Relative Feuchte Sichtweite
Mi, 17.07. 16:00 42% 35 km
Mi, 17.07. 15:50 42% -
Mi, 17.07. 15:40 45% -
Mi, 17.07. 15:30 44% 40 km
Mi, 17.07. 15:20 44% -
Mi, 17.07. 15:10 43% -
Mi, 17.07. 15:00 46% 45 km
Mi, 17.07. 14:30 49% 45 km
Mi, 17.07. 14:00 49% 40 km
Mi, 17.07. 13:30 50% 45 km
Mi, 17.07. 13:00 55% 45 km
Ortszeit Niederschlagsmenge Niederschlagsart
Mi, 17.07. 14:00 0.0 l/m2 in 6 Std. -
Mi, 17.07. 8:00 0.0 l/m2 in 12 Std. -
Mi, 17.07. 2:00 0.0 l/m2 in 6 Std. -
Di, 16.07. 20:00 0.0 l/m2 in 12 Std. -
Di, 16.07. 14:00 0.0 l/m2 in 6 Std. -
Di, 16.07. 8:00 0.0 l/m2 in 12 Std. -
Di, 16.07. 2:00 0.0 l/m2 in 6 Std. -
Mo, 15.07. 20:00 0.0 l/m2 in 12 Std. -
Ortszeit Niederschlagsmenge Niederschlagsart
Mi, 17.07. 16:00 0.0 l/m2 in 1 Std. -
Mi, 17.07. 15:50 keine Meldung -
Mi, 17.07. 15:40 keine Meldung -
Mi, 17.07. 15:30 0.0 l/m2 in 1 Std. -
Mi, 17.07. 15:20 keine Meldung -
Mi, 17.07. 15:10 keine Meldung -
Mi, 17.07. 15:00 0.0 l/m2 in 1 Std. -
Mi, 17.07. 14:30 0.0 l/m2 in 1 Std. -
Mi, 17.07. 14:00 0.0 l/m2 in 1 Std. -
Mi, 17.07. 13:30 0.0 l/m2 in 1 Std. -
Mi, 17.07. 13:00 0.0 l/m2 in 1 Std. -
Ortszeit Stärke Spitze Richtung
km/h Bft. km/h Grad Sektor
Mi, 17.07. 14:00 9 2 22 300° NW
Mi, 17.07. 8:00 4 1 7 70° O
Mi, 17.07. 2:00 4 1 11 190° S
Di, 16.07. 20:00 4 1 25 320° NW
Di, 16.07. 14:00 11 2 22 360° N
Di, 16.07. 8:00 4 1 18 240° SW
Di, 16.07. 2:00 7 2 22 310° NW
Mo, 15.07. 20:00 11 2 25 10° N
Ortszeit Stärke Spitze Richtung
km/h Bft. km/h Grad Sektor
Mi, 17.07. 16:00 11 2 25 260° W
Mi, 17.07. 15:50 11 2 - 260° W
Mi, 17.07. 15:40 11 2 - 280° W
Mi, 17.07. 15:30 13 3 24 260° W
Mi, 17.07. 15:20 13 3 - 260° W
Mi, 17.07. 15:10 17 3 - 250° W
Mi, 17.07. 15:00 9 2 24 330° NW
Mi, 17.07. 14:30 9 2 19 280° W
Mi, 17.07. 14:00 9 2 22 300° NW
Mi, 17.07. 13:30 9 2 19 270° W
Mi, 17.07. 13:00 7 2 17 280° W
Ortszeit Untergrenze Bedeckung Gattung
total tief tief mittel hoch
Mi, 17.07. 14:00 1200 m 5/8 5/8 - - -
Mi, 17.07. 8:00 <30 m 7/8 0/8 - - -
Mi, 17.07. 2:00 7800 m 7/8 0/8 - - -
Di, 16.07. 20:00 9000 m 8/8 0/8 - - -
Di, 16.07. 14:00 9000 m 0/8 0/8 - - -
Di, 16.07. 8:00 - 0/8 0/8 - - -
Di, 16.07. 2:00 540 m 3/8 3/8 - - -
Mo, 15.07. 20:00 1020 m 7/8 4/8 - - -
Ortszeit Bedeckungsgrad in Achtel und Wolkenuntergrenze
Mi, 17.07. 16:00 keine Wolken
Mi, 17.07. 15:50 keine Wolken
Mi, 17.07. 15:40 1(1440m)
Mi, 17.07. 15:30 2(1440m)
Mi, 17.07. 15:20 2(1440m) 2(1500m)
Mi, 17.07. 15:10 1(1410m) 2(8400m) 2(9000m)
Mi, 17.07. 15:00 4(1380m) 6(8400m) 6(9000m)
Mi, 17.07. 14:30 2(1320m) 4(8400m) 5(9000m)
Mi, 17.07. 14:00 5(1200m) 6(9000m) 6(9000m)
Mi, 17.07. 13:30 1(9000m) 4(9000m)
Mi, 17.07. 13:00 1(9000m)
Ortszeit Luftdruck NN (hPa) Tendenz (hPa in 3 Std.)
Mi, 17.07. 14:00 1014 - 0,7
Mi, 17.07. 8:00 1016 - 0,2
Mi, 17.07. 2:00 1017 0,0
Di, 16.07. 20:00 1016 - 0,5
Di, 16.07. 14:00 1017 - 0,5
Di, 16.07. 8:00 1019 + 0,2
Di, 16.07. 2:00 1019 + 0,3
Mo, 15.07. 20:00 1017 0,0
Ortszeit Luftdruck NN (hPa) Tendenz (hPa in 3 Std.)
Mi, 17.07. 16:00 1013 - 0,8
Mi, 17.07. 15:50 1013 keine Meldung
Mi, 17.07. 15:40 1013 keine Meldung
Mi, 17.07. 15:30 1013 - 0,8
Mi, 17.07. 15:20 1013 keine Meldung
Mi, 17.07. 15:10 1013 keine Meldung
Mi, 17.07. 15:00 1013 - 0,8
Mi, 17.07. 14:30 1013 - 0,7
Mi, 17.07. 14:00 1014 - 0,7
Mi, 17.07. 13:30 1014 - 0,6
Mi, 17.07. 13:00 1014 - 0,6
Ortszeit Schneehöhe (cm)
Mi, 17.07. 14:00 -
Mi, 17.07. 8:00 -
Mi, 17.07. 2:00 -
Di, 16.07. 20:00 -
Di, 16.07. 14:00 -
Di, 16.07. 8:00 -
Di, 16.07. 2:00 -
Mo, 15.07. 20:00 -
Ortszeit Schneehöhe (cm)
Mi, 17.07. 16:00 -
Mi, 17.07. 15:50 -
Mi, 17.07. 15:40 -
Mi, 17.07. 15:30 -
Mi, 17.07. 15:20 -
Mi, 17.07. 15:10 -
Mi, 17.07. 15:00 -
Mi, 17.07. 14:30 -
Mi, 17.07. 14:00 -
Mi, 17.07. 13:30 -
Mi, 17.07. 13:00 -
Link zu dieser Seite / Seite empfehlen

Das Wetter in ...